sensor_id;sensor_type;location;lat;lon;timestamp;temperature;humidity
60473;DHT22;46318;52.716;6.444;2024-03-06T00:02:11;6.00;100.00
60473;DHT22;46318;52.716;6.444;2024-03-06T00:04:37;6.00;100.00
60473;DHT22;46318;52.716;6.444;2024-03-06T00:07:03;6.00;100.00
60473;DHT22;46318;52.716;6.444;2024-03-06T00:09:29;6.00;100.00
60473;DHT22;46318;52.716;6.444;2024-03-06T00:11:55;6.00;100.00
60473;DHT22;46318;52.716;6.444;2024-03-06T00:14:22;5.90;100.00
60473;DHT22;46318;52.716;6.444;2024-03-06T00:16:49;5.90;100.00
60473;DHT22;46318;52.716;6.444;2024-03-06T00:19:18;5.90;100.00
60473;DHT22;46318;52.716;6.444;2024-03-06T00:21:44;5.90;100.00
60473;DHT22;46318;52.716;6.444;2024-03-06T00:24:14;5.90;100.00
60473;DHT22;46318;52.716;6.444;2024-03-06T00:26:44;5.90;100.00
60473;DHT22;46318;52.716;6.444;2024-03-06T00:29:11;5.90;100.00
60473;DHT22;46318;52.716;6.444;2024-03-06T00:31:44;5.90;100.00
60473;DHT22;46318;52.716;6.444;2024-03-06T00:34:11;5.80;100.00
60473;DHT22;46318;52.716;6.444;2024-03-06T00:36:45;5.80;100.00
60473;DHT22;46318;52.716;6.444;2024-03-06T00:39:11;5.80;100.00
60473;DHT22;46318;52.716;6.444;2024-03-06T00:41:40;5.80;100.00
60473;DHT22;46318;52.716;6.444;2024-03-06T00:44:06;5.80;100.00
60473;DHT22;46318;52.716;6.444;2024-03-06T00:46:32;5.80;100.00
60473;DHT22;46318;52.716;6.444;2024-03-06T00:48:58;5.70;100.00
60473;DHT22;46318;52.716;6.444;2024-03-06T00:51:24;5.70;100.00
60473;DHT22;46318;52.716;6.444;2024-03-06T00:53:49;5.70;100.00
60473;DHT22;46318;52.716;6.444;2024-03-06T00:56:15;5.70;100.00
60473;DHT22;46318;52.716;6.444;2024-03-06T00:58:41;5.70;100.00
60473;DHT22;46318;52.716;6.444;2024-03-06T01:01:07;5.70;100.00
60473;DHT22;46318;52.716;6.444;2024-03-06T01:03:32;5.60;100.00
60473;DHT22;46318;52.716;6.444;2024-03-06T01:05:58;5.70;100.00
60473;DHT22;46318;52.716;6.444;2024-03-06T01:08:24;5.70;100.00
60473;DHT22;46318;52.716;6.444;2024-03-06T01:10:51;5.60;100.00
60473;DHT22;46318;52.716;6.444;2024-03-06T01:13:18;5.60;100.00
60473;DHT22;46318;52.716;6.444;2024-03-06T01:15:44;5.60;100.00
60473;DHT22;46318;52.716;6.444;2024-03-06T01:18:10;5.60;100.00
60473;DHT22;46318;52.716;6.444;2024-03-06T01:20:36;5.60;100.00
60473;DHT22;46318;52.716;6.444;2024-03-06T01:23:02;5.60;100.00
60473;DHT22;46318;52.716;6.444;2024-03-06T01:25:29;5.60;100.00
60473;DHT22;46318;52.716;6.444;2024-03-06T01:27:54;5.60;100.00
60473;DHT22;46318;52.716;6.444;2024-03-06T01:30:20;5.60;100.00
60473;DHT22;46318;52.716;6.444;2024-03-06T01:32:46;5.50;100.00
60473;DHT22;46318;52.716;6.444;2024-03-06T01:35:12;5.50;100.00
60473;DHT22;46318;52.716;6.444;2024-03-06T01:37:38;5.50;100.00
60473;DHT22;46318;52.716;6.444;2024-03-06T01:40:04;5.50;100.00
60473;DHT22;46318;52.716;6.444;2024-03-06T01:42:31;5.50;100.00
60473;DHT22;46318;52.716;6.444;2024-03-06T01:44:57;5.50;100.00
60473;DHT22;46318;52.716;6.444;2024-03-06T01:47:22;5.40;100.00
60473;DHT22;46318;52.716;6.444;2024-03-06T01:49:49;5.50;100.00
60473;DHT22;46318;52.716;6.444;2024-03-06T01:52:15;5.40;100.00
60473;DHT22;46318;52.716;6.444;2024-03-06T01:54:44;5.40;99.90
60473;DHT22;46318;52.716;6.444;2024-03-06T01:57:11;5.40;100.00
60473;DHT22;46318;52.716;6.444;2024-03-06T01:59:40;5.40;100.00
60473;DHT22;46318;52.716;6.444;2024-03-06T02:02:06;5.40;100.00
60473;DHT22;46318;52.716;6.444;2024-03-06T02:04:34;5.40;100.00
60473;DHT22;46318;52.716;6.444;2024-03-06T02:07:00;5.40;99.80
60473;DHT22;46318;52.716;6.444;2024-03-06T02:09:26;5.40;100.00
60473;DHT22;46318;52.716;6.444;2024-03-06T02:11:52;5.40;100.00
60473;DHT22;46318;52.716;6.444;2024-03-06T02:14:19;5.40;99.90
60473;DHT22;46318;52.716;6.444;2024-03-06T02:16:45;5.40;99.60
60473;DHT22;46318;52.716;6.444;2024-03-06T02:19:10;5.40;99.80
60473;DHT22;46318;52.716;6.444;2024-03-06T02:21:36;5.30;99.30
60473;DHT22;46318;52.716;6.444;2024-03-06T02:24:03;5.30;99.30
60473;DHT22;46318;52.716;6.444;2024-03-06T02:26:29;5.30;99.30
60473;DHT22;46318;52.716;6.444;2024-03-06T02:28:55;5.30;99.70
60473;DHT22;46318;52.716;6.444;2024-03-06T02:31:22;5.30;99.70
60473;DHT22;46318;52.716;6.444;2024-03-06T02:33:49;5.30;99.60
60473;DHT22;46318;52.716;6.444;2024-03-06T02:36:18;5.30;99.70
60473;DHT22;46318;52.716;6.444;2024-03-06T02:38:45;5.30;99.90
60473;DHT22;46318;52.716;6.444;2024-03-06T02:41:11;5.30;99.80
60473;DHT22;46318;52.716;6.444;2024-03-06T02:43:39;5.30;99.40
60473;DHT22;46318;52.716;6.444;2024-03-06T02:46:05;5.30;99.40
60473;DHT22;46318;52.716;6.444;2024-03-06T02:48:31;5.30;99.40
60473;DHT22;46318;52.716;6.444;2024-03-06T02:50:57;5.30;99.60
60473;DHT22;46318;52.716;6.444;2024-03-06T02:53:23;5.30;99.50
60473;DHT22;46318;52.716;6.444;2024-03-06T02:55:50;5.30;99.30
60473;DHT22;46318;52.716;6.444;2024-03-06T02:58:16;5.30;99.40
60473;DHT22;46318;52.716;6.444;2024-03-06T03:00:43;5.30;99.20
60473;DHT22;46318;52.716;6.444;2024-03-06T03:03:09;5.20;99.10
60473;DHT22;46318;52.716;6.444;2024-03-06T03:05:38;5.30;99.60
60473;DHT22;46318;52.716;6.444;2024-03-06T03:08:04;5.30;99.40
60473;DHT22;46318;52.716;6.444;2024-03-06T03:10:31;5.20;99.20
60473;DHT22;46318;52.716;6.444;2024-03-06T03:12:57;5.20;99.00
60473;DHT22;46318;52.716;6.444;2024-03-06T03:15:22;5.20;99.10
60473;DHT22;46318;52.716;6.444;2024-03-06T03:17:48;5.20;99.00
60473;DHT22;46318;52.716;6.444;2024-03-06T03:20:14;5.20;99.00
60473;DHT22;46318;52.716;6.444;2024-03-06T03:22:42;5.20;98.80
60473;DHT22;46318;52.716;6.444;2024-03-06T03:25:10;5.20;99.00
60473;DHT22;46318;52.716;6.444;2024-03-06T03:27:40;5.20;99.10
60473;DHT22;46318;52.716;6.444;2024-03-06T03:30:10;5.20;99.40
60473;DHT22;46318;52.716;6.444;2024-03-06T03:32:37;5.20;99.10
60473;DHT22;46318;52.716;6.444;2024-03-06T03:35:06;5.20;99.10
60473;DHT22;46318;52.716;6.444;2024-03-06T03:37:33;5.20;99.30
60473;DHT22;46318;52.716;6.444;2024-03-06T03:39:59;5.20;99.50
60473;DHT22;46318;52.716;6.444;2024-03-06T03:42:25;5.20;99.60
60473;DHT22;46318;52.716;6.444;2024-03-06T03:44:51;5.20;99.40
60473;DHT22;46318;52.716;6.444;2024-03-06T03:47:17;5.20;99.30
60473;DHT22;46318;52.716;6.444;2024-03-06T03:49:43;5.20;99.30
60473;DHT22;46318;52.716;6.444;2024-03-06T03:52:09;5.20;99.10
60473;DHT22;46318;52.716;6.444;2024-03-06T03:54:37;5.20;98.70
60473;DHT22;46318;52.716;6.444;2024-03-06T03:57:03;5.20;99.30
60473;DHT22;46318;52.716;6.444;2024-03-06T03:59:29;5.20;99.30
60473;DHT22;46318;52.716;6.444;2024-03-06T04:01:55;5.20;99.70
60473;DHT22;46318;52.716;6.444;2024-03-06T04:04:22;5.20;99.40
60473;DHT22;46318;52.716;6.444;2024-03-06T04:06:48;5.20;99.30
60473;DHT22;46318;52.716;6.444;2024-03-06T04:09:14;5.20;99.60
60473;DHT22;46318;52.716;6.444;2024-03-06T04:11:40;5.10;99.10
60473;DHT22;46318;52.716;6.444;2024-03-06T04:14:07;5.10;99.20
60473;DHT22;46318;52.716;6.444;2024-03-06T04:16:33;5.10;99.00
60473;DHT22;46318;52.716;6.444;2024-03-06T04:19:00;5.10;99.10
60473;DHT22;46318;52.716;6.444;2024-03-06T04:21:26;5.10;99.40
60473;DHT22;46318;52.716;6.444;2024-03-06T04:23:52;5.10;99.60
60473;DHT22;46318;52.716;6.444;2024-03-06T04:26:18;5.10;99.40
60473;DHT22;46318;52.716;6.444;2024-03-06T04:28:44;5.10;99.30
60473;DHT22;46318;52.716;6.444;2024-03-06T04:31:10;5.10;99.10
60473;DHT22;46318;52.716;6.444;2024-03-06T04:33:36;5.10;99.00
60473;DHT22;46318;52.716;6.444;2024-03-06T04:36:04;5.10;99.20
60473;DHT22;46318;52.716;6.444;2024-03-06T04:38:33;5.10;99.00
60473;DHT22;46318;52.716;6.444;2024-03-06T04:40:59;5.10;99.00
60473;DHT22;46318;52.716;6.444;2024-03-06T04:43:25;5.10;98.70
60473;DHT22;46318;52.716;6.444;2024-03-06T04:45:51;5.10;99.00
60473;DHT22;46318;52.716;6.444;2024-03-06T04:48:17;5.10;99.10
60473;DHT22;46318;52.716;6.444;2024-03-06T04:50:43;5.10;99.00
60473;DHT22;46318;52.716;6.444;2024-03-06T04:53:10;5.10;98.80
60473;DHT22;46318;52.716;6.444;2024-03-06T04:55:36;5.10;98.90
60473;DHT22;46318;52.716;6.444;2024-03-06T04:58:03;5.10;98.70
60473;DHT22;46318;52.716;6.444;2024-03-06T05:00:30;5.10;98.80
60473;DHT22;46318;52.716;6.444;2024-03-06T05:02:56;5.10;98.70
60473;DHT22;46318;52.716;6.444;2024-03-06T05:05:22;5.10;98.90
60473;DHT22;46318;52.716;6.444;2024-03-06T05:07:48;5.10;98.70
60473;DHT22;46318;52.716;6.444;2024-03-06T05:10:15;5.10;98.60
60473;DHT22;46318;52.716;6.444;2024-03-06T05:12:42;5.10;98.70
60473;DHT22;46318;52.716;6.444;2024-03-06T05:15:09;5.10;98.80
60473;DHT22;46318;52.716;6.444;2024-03-06T05:17:38;5.10;98.80
60473;DHT22;46318;52.716;6.444;2024-03-06T05:20:04;5.10;98.90
60473;DHT22;46318;52.716;6.444;2024-03-06T05:22:33;5.10;99.00
60473;DHT22;46318;52.716;6.444;2024-03-06T05:24:59;5.10;98.90
60473;DHT22;46318;52.716;6.444;2024-03-06T05:27:25;5.10;98.70
60473;DHT22;46318;52.716;6.444;2024-03-06T05:29:51;5.10;98.40
60473;DHT22;46318;52.716;6.444;2024-03-06T05:32:17;5.10;98.90
60473;DHT22;46318;52.716;6.444;2024-03-06T05:34:44;5.10;98.80
60473;DHT22;46318;52.716;6.444;2024-03-06T05:37:10;5.10;99.10
60473;DHT22;46318;52.716;6.444;2024-03-06T05:39:36;5.10;99.10
60473;DHT22;46318;52.716;6.444;2024-03-06T05:42:05;5.10;99.30
60473;DHT22;46318;52.716;6.444;2024-03-06T05:44:32;5.10;99.50
60473;DHT22;46318;52.716;6.444;2024-03-06T05:46:58;5.10;99.30
60473;DHT22;46318;52.716;6.444;2024-03-06T05:49:25;5.10;99.40
60473;DHT22;46318;52.716;6.444;2024-03-06T05:51:51;5.10;99.60
60473;DHT22;46318;52.716;6.444;2024-03-06T05:54:19;5.10;99.70
60473;DHT22;46318;52.716;6.444;2024-03-06T05:56:49;5.10;99.60
60473;DHT22;46318;52.716;6.444;2024-03-06T05:59:17;5.10;99.40
60473;DHT22;46318;52.716;6.444;2024-03-06T06:01:43;5.10;99.30
60473;DHT22;46318;52.716;6.444;2024-03-06T06:04:10;5.10;99.20
60473;DHT22;46318;52.716;6.444;2024-03-06T06:06:36;5.10;99.50
60473;DHT22;46318;52.716;6.444;2024-03-06T06:09:03;5.10;99.40
60473;DHT22;46318;52.716;6.444;2024-03-06T06:11:32;5.10;99.70
60473;DHT22;46318;52.716;6.444;2024-03-06T06:14:01;5.10;99.40
60473;DHT22;46318;52.716;6.444;2024-03-06T06:16:34;5.10;99.30
60473;DHT22;46318;52.716;6.444;2024-03-06T06:19:00;5.10;99.50
60473;DHT22;46318;52.716;6.444;2024-03-06T06:21:26;5.10;99.70
60473;DHT22;46318;52.716;6.444;2024-03-06T06:23:52;5.10;99.20
60473;DHT22;46318;52.716;6.444;2024-03-06T06:26:18;5.20;99.50
60473;DHT22;46318;52.716;6.444;2024-03-06T06:28:44;5.10;99.50
60473;DHT22;46318;52.716;6.444;2024-03-06T06:31:12;5.10;99.40
60473;DHT22;46318;52.716;6.444;2024-03-06T06:33:37;5.10;99.60
60473;DHT22;46318;52.716;6.444;2024-03-06T06:36:04;5.20;99.60
60473;DHT22;46318;52.716;6.444;2024-03-06T06:38:30;5.10;99.60
60473;DHT22;46318;52.716;6.444;2024-03-06T06:40:56;5.10;99.40
60473;DHT22;46318;52.716;6.444;2024-03-06T06:43:22;5.10;99.30
60473;DHT22;46318;52.716;6.444;2024-03-06T06:45:48;5.10;99.40
60473;DHT22;46318;52.716;6.444;2024-03-06T06:48:14;5.10;99.50
60473;DHT22;46318;52.716;6.444;2024-03-06T06:50:40;5.10;99.60
60473;DHT22;46318;52.716;6.444;2024-03-06T06:53:05;5.10;99.80
60473;DHT22;46318;52.716;6.444;2024-03-06T06:55:31;5.10;99.80
60473;DHT22;46318;52.716;6.444;2024-03-06T06:57:57;5.20;99.90
60473;DHT22;46318;52.716;6.444;2024-03-06T07:00:23;5.20;100.00
60473;DHT22;46318;52.716;6.444;2024-03-06T07:02:50;5.20;99.90
60473;DHT22;46318;52.716;6.444;2024-03-06T07:05:16;5.20;100.00
60473;DHT22;46318;52.716;6.444;2024-03-06T07:07:42;5.20;99.50
60473;DHT22;46318;52.716;6.444;2024-03-06T07:10:08;5.20;99.70
60473;DHT22;46318;52.716;6.444;2024-03-06T07:12:35;5.20;99.50
60473;DHT22;46318;52.716;6.444;2024-03-06T07:15:00;5.20;99.50
60473;DHT22;46318;52.716;6.444;2024-03-06T07:17:28;5.20;99.50
60473;DHT22;46318;52.716;6.444;2024-03-06T07:19:54;5.20;99.70
60473;DHT22;46318;52.716;6.444;2024-03-06T07:22:20;5.20;99.60
60473;DHT22;46318;52.716;6.444;2024-03-06T07:24:45;5.20;99.60
60473;DHT22;46318;52.716;6.444;2024-03-06T07:27:11;5.20;99.50
60473;DHT22;46318;52.716;6.444;2024-03-06T07:29:37;5.20;99.40
60473;DHT22;46318;52.716;6.444;2024-03-06T07:32:04;5.20;99.50
60473;DHT22;46318;52.716;6.444;2024-03-06T07:34:32;5.20;99.20
60473;DHT22;46318;52.716;6.444;2024-03-06T07:36:59;5.20;99.20
60473;DHT22;46318;52.716;6.444;2024-03-06T07:39:25;5.20;99.40
60473;DHT22;46318;52.716;6.444;2024-03-06T07:41:51;5.20;99.60
60473;DHT22;46318;52.716;6.444;2024-03-06T07:44:17;5.20;99.70
60473;DHT22;46318;52.716;6.444;2024-03-06T07:46:43;5.30;99.50
60473;DHT22;46318;52.716;6.444;2024-03-06T07:49:09;5.30;99.50
60473;DHT22;46318;52.716;6.444;2024-03-06T07:51:35;5.30;99.40
60473;DHT22;46318;52.716;6.444;2024-03-06T07:54:04;5.30;99.70
60473;DHT22;46318;52.716;6.444;2024-03-06T07:56:29;5.30;99.70
60473;DHT22;46318;52.716;6.444;2024-03-06T07:58:56;5.30;99.70
60473;DHT22;46318;52.716;6.444;2024-03-06T08:01:22;5.30;99.70
60473;DHT22;46318;52.716;6.444;2024-03-06T08:03:49;5.40;99.70
60473;DHT22;46318;52.716;6.444;2024-03-06T08:06:14;5.40;99.80
60473;DHT22;46318;52.716;6.444;2024-03-06T08:08:44;5.40;99.90
60473;DHT22;46318;52.716;6.444;2024-03-06T08:11:14;5.40;100.00
60473;DHT22;46318;52.716;6.444;2024-03-06T08:13:40;5.40;100.00
60473;DHT22;46318;52.716;6.444;2024-03-06T08:16:07;5.40;99.80
60473;DHT22;46318;52.716;6.444;2024-03-06T08:18:34;5.40;99.60
60473;DHT22;46318;52.716;6.444;2024-03-06T08:21:01;5.40;100.00
60473;DHT22;46318;52.716;6.444;2024-03-06T08:23:28;5.50;100.00
60473;DHT22;46318;52.716;6.444;2024-03-06T08:25:55;5.50;100.00
60473;DHT22;46318;52.716;6.444;2024-03-06T08:28:21;5.50;100.00
60473;DHT22;46318;52.716;6.444;2024-03-06T08:30:47;5.50;99.90
60473;DHT22;46318;52.716;6.444;2024-03-06T08:33:13;5.50;99.80
60473;DHT22;46318;52.716;6.444;2024-03-06T08:35:39;5.50;99.80
60473;DHT22;46318;52.716;6.444;2024-03-06T08:38:05;5.60;99.70
60473;DHT22;46318;52.716;6.444;2024-03-06T08:40:32;5.60;99.60
60473;DHT22;46318;52.716;6.444;2024-03-06T08:42:59;5.60;99.70
60473;DHT22;46318;52.716;6.444;2024-03-06T08:45:24;5.60;99.80
60473;DHT22;46318;52.716;6.444;2024-03-06T08:47:50;5.60;99.80
60473;DHT22;46318;52.716;6.444;2024-03-06T08:50:17;5.60;99.80
60473;DHT22;46318;52.716;6.444;2024-03-06T08:52:45;5.60;99.60
60473;DHT22;46318;52.716;6.444;2024-03-06T08:55:11;5.60;99.50
60473;DHT22;46318;52.716;6.444;2024-03-06T08:57:38;5.70;99.40
60473;DHT22;46318;52.716;6.444;2024-03-06T09:00:05;5.70;99.20
60473;DHT22;46318;52.716;6.444;2024-03-06T09:02:39;5.70;99.50
60473;DHT22;46318;52.716;6.444;2024-03-06T09:05:08;5.70;99.30
60473;DHT22;46318;52.716;6.444;2024-03-06T09:07:36;5.70;99.40
60473;DHT22;46318;52.716;6.444;2024-03-06T09:10:09;5.80;99.50
60473;DHT22;46318;52.716;6.444;2024-03-06T09:12:36;5.80;99.30
60473;DHT22;46318;52.716;6.444;2024-03-06T09:15:03;5.80;99.30
60473;DHT22;46318;52.716;6.444;2024-03-06T09:17:30;5.80;99.20
60473;DHT22;46318;52.716;6.444;2024-03-06T09:19:56;5.80;99.10
60473;DHT22;46318;52.716;6.444;2024-03-06T09:22:22;5.80;98.80
60473;DHT22;46318;52.716;6.444;2024-03-06T09:24:48;5.80;99.10
60473;DHT22;46318;52.716;6.444;2024-03-06T09:27:14;5.90;99.10
60473;DHT22;46318;52.716;6.444;2024-03-06T09:29:43;5.90;99.00
60473;DHT22;46318;52.716;6.444;2024-03-06T09:32:09;5.90;99.20
60473;DHT22;46318;52.716;6.444;2024-03-06T09:34:35;6.00;99.30
60473;DHT22;46318;52.716;6.444;2024-03-06T09:37:01;6.00;99.10
60473;DHT22;46318;52.716;6.444;2024-03-06T09:39:29;6.00;99.10
60473;DHT22;46318;52.716;6.444;2024-03-06T09:41:54;6.00;99.20
60473;DHT22;46318;52.716;6.444;2024-03-06T09:44:22;6.10;99.20
60473;DHT22;46318;52.716;6.444;2024-03-06T09:46:49;6.10;99.00
60473;DHT22;46318;52.716;6.444;2024-03-06T09:49:19;6.10;98.80
60473;DHT22;46318;52.716;6.444;2024-03-06T09:51:46;6.10;98.90
60473;DHT22;46318;52.716;6.444;2024-03-06T09:54:16;6.20;99.10
60473;DHT22;46318;52.716;6.444;2024-03-06T09:56:43;6.20;98.80
60473;DHT22;46318;52.716;6.444;2024-03-06T09:59:11;6.20;98.50
60473;DHT22;46318;52.716;6.444;2024-03-06T10:01:45;6.20;98.60
60473;DHT22;46318;52.716;6.444;2024-03-06T10:06:57;6.30;98.80
60473;DHT22;46318;52.716;6.444;2024-03-06T10:09:24;6.40;98.80
60473;DHT22;46318;52.716;6.444;2024-03-06T10:11:51;6.40;98.70
60473;DHT22;46318;52.716;6.444;2024-03-06T10:14:21;6.50;98.80
60473;DHT22;46318;52.716;6.444;2024-03-06T10:16:57;6.50;98.70
60473;DHT22;46318;52.716;6.444;2024-03-06T10:19:28;6.50;98.50
60473;DHT22;46318;52.716;6.444;2024-03-06T10:21:56;6.60;98.60
60473;DHT22;46318;52.716;6.444;2024-03-06T10:24:30;6.60;99.00
60473;DHT22;46318;52.716;6.444;2024-03-06T10:26:57;6.70;98.90
60473;DHT22;46318;52.716;6.444;2024-03-06T10:29:25;6.70;98.60
60473;DHT22;46318;52.716;6.444;2024-03-06T10:31:57;6.70;98.50
60473;DHT22;46318;52.716;6.444;2024-03-06T10:34:24;6.70;98.40
60473;DHT22;46318;52.716;6.444;2024-03-06T10:36:58;6.70;98.40
60473;DHT22;46318;52.716;6.444;2024-03-06T10:39:27;6.80;98.70
60473;DHT22;46318;52.716;6.444;2024-03-06T10:41:56;6.80;98.50
60473;DHT22;46318;52.716;6.444;2024-03-06T10:44:24;6.80;98.40
60473;DHT22;46318;52.716;6.444;2024-03-06T10:47:01;6.90;98.40
60473;DHT22;46318;52.716;6.444;2024-03-06T10:49:30;6.90;98.30
60473;DHT22;46318;52.716;6.444;2024-03-06T10:52:00;7.00;98.40
60473;DHT22;46318;52.716;6.444;2024-03-06T10:54:33;7.00;98.20
60473;DHT22;46318;52.716;6.444;2024-03-06T10:57:04;7.00;98.50
60473;DHT22;46318;52.716;6.444;2024-03-06T10:59:32;7.00;98.30
60473;DHT22;46318;52.716;6.444;2024-03-06T11:02:00;7.10;98.30
60473;DHT22;46318;52.716;6.444;2024-03-06T11:04:27;7.10;98.00
60473;DHT22;46318;52.716;6.444;2024-03-06T11:06:55;7.20;98.30
60473;DHT22;46318;52.716;6.444;2024-03-06T11:09:22;7.20;98.20
60473;DHT22;46318;52.716;6.444;2024-03-06T11:11:52;7.30;98.40
60473;DHT22;46318;52.716;6.444;2024-03-06T11:14:21;7.30;97.90
60473;DHT22;46318;52.716;6.444;2024-03-06T11:25:55;7.50;97.30
60473;DHT22;46318;52.716;6.444;2024-03-06T11:28:38;7.60;97.10
60473;DHT22;46318;52.716;6.444;2024-03-06T11:33:42;7.70;97.10
60473;DHT22;46318;52.716;6.444;2024-03-06T11:41:47;7.90;96.10
60473;DHT22;46318;52.716;6.444;2024-03-06T11:44:21;8.00;95.60
60473;DHT22;46318;52.716;6.444;2024-03-06T11:46:49;8.10;95.70
60473;DHT22;46318;52.716;6.444;2024-03-06T11:49:22;8.10;95.10
60473;DHT22;46318;52.716;6.444;2024-03-06T11:51:52;8.20;95.00
60473;DHT22;46318;52.716;6.444;2024-03-06T11:54:19;8.20;94.60
60473;DHT22;46318;52.716;6.444;2024-03-06T11:56:56;8.20;94.30
60473;DHT22;46318;52.716;6.444;2024-03-06T11:59:25;8.30;94.90
60473;DHT22;46318;52.716;6.444;2024-03-06T12:01:52;8.40;94.20
60473;DHT22;46318;52.716;6.444;2024-03-06T12:04:20;8.40;93.70
60473;DHT22;46318;52.716;6.444;2024-03-06T12:06:46;8.50;93.30
60473;DHT22;46318;52.716;6.444;2024-03-06T12:09:12;8.60;93.10
60473;DHT22;46318;52.716;6.444;2024-03-06T12:11:38;8.80;93.40
60473;DHT22;46318;52.716;6.444;2024-03-06T12:14:04;9.00;92.90
60473;DHT22;46318;52.716;6.444;2024-03-06T12:16:31;9.10;92.00
60473;DHT22;46318;52.716;6.444;2024-03-06T12:18:57;9.30;92.10
60473;DHT22;46318;52.716;6.444;2024-03-06T12:21:33;9.40;91.20
60473;DHT22;46318;52.716;6.444;2024-03-06T12:24:07;9.60;91.20
60473;DHT22;46318;52.716;6.444;2024-03-06T12:26:34;9.70;89.40
60473;DHT22;46318;52.716;6.444;2024-03-06T12:29:09;9.80;90.20
60473;DHT22;46318;52.716;6.444;2024-03-06T12:31:37;9.90;89.40
60473;DHT22;46318;52.716;6.444;2024-03-06T12:34:06;10.00;89.10
60473;DHT22;46318;52.716;6.444;2024-03-06T12:36:32;10.10;88.80
60473;DHT22;46318;52.716;6.444;2024-03-06T12:39:03;10.20;88.20
60473;DHT22;46318;52.716;6.444;2024-03-06T12:41:29;10.30;87.80
60473;DHT22;46318;52.716;6.444;2024-03-06T12:43:55;10.40;87.90
60473;DHT22;46318;52.716;6.444;2024-03-06T12:46:25;10.50;86.60
60473;DHT22;46318;52.716;6.444;2024-03-06T12:48:52;10.50;86.50
60473;DHT22;46318;52.716;6.444;2024-03-06T12:51:18;10.50;86.40
60473;DHT22;46318;52.716;6.444;2024-03-06T12:53:45;10.60;86.10
60473;DHT22;46318;52.716;6.444;2024-03-06T12:56:11;10.70;85.80
60473;DHT22;46318;52.716;6.444;2024-03-06T12:58:37;10.80;85.40
60473;DHT22;46318;52.716;6.444;2024-03-06T13:01:03;10.80;85.30
60473;DHT22;46318;52.716;6.444;2024-03-06T13:03:30;10.90;85.00
60473;DHT22;46318;52.716;6.444;2024-03-06T13:05:56;11.00;85.30
60473;DHT22;46318;52.716;6.444;2024-03-06T13:08:22;11.00;85.10
60473;DHT22;46318;52.716;6.444;2024-03-06T13:10:47;11.10;84.80
60473;DHT22;46318;52.716;6.444;2024-03-06T13:13:13;11.00;84.10
60473;DHT22;46318;52.716;6.444;2024-03-06T13:15:39;11.00;84.60
60473;DHT22;46318;52.716;6.444;2024-03-06T13:18:05;10.90;85.00
60473;DHT22;46318;52.716;6.444;2024-03-06T13:20:34;10.80;84.80
60473;DHT22;46318;52.716;6.444;2024-03-06T13:23:01;10.80;85.20
60473;DHT22;46318;52.716;6.444;2024-03-06T13:25:27;10.70;85.00
60473;DHT22;46318;52.716;6.444;2024-03-06T13:27:54;10.70;84.30
60473;DHT22;46318;52.716;6.444;2024-03-06T13:30:20;10.60;84.70
60473;DHT22;46318;52.716;6.444;2024-03-06T13:32:46;10.50;85.60
60473;DHT22;46318;52.716;6.444;2024-03-06T13:35:13;10.50;86.20
60473;DHT22;46318;52.716;6.444;2024-03-06T13:37:45;10.50;86.20
60473;DHT22;46318;52.716;6.444;2024-03-06T13:40:12;10.50;86.40
60473;DHT22;46318;52.716;6.444;2024-03-06T13:42:42;10.50;86.70
60473;DHT22;46318;52.716;6.444;2024-03-06T13:45:09;10.50;86.50
60473;DHT22;46318;52.716;6.444;2024-03-06T13:47:41;10.50;86.40
60473;DHT22;46318;52.716;6.444;2024-03-06T13:50:10;10.50;86.40
60473;DHT22;46318;52.716;6.444;2024-03-06T13:52:42;10.40;85.50
60473;DHT22;46318;52.716;6.444;2024-03-06T13:55:08;10.40;86.10
60473;DHT22;46318;52.716;6.444;2024-03-06T13:57:37;10.40;87.00
60473;DHT22;46318;52.716;6.444;2024-03-06T14:00:03;10.30;86.90
60473;DHT22;46318;52.716;6.444;2024-03-06T14:02:31;10.40;87.00
60473;DHT22;46318;52.716;6.444;2024-03-06T14:04:58;10.40;86.90
60473;DHT22;46318;52.716;6.444;2024-03-06T14:07:24;10.30;86.90
60473;DHT22;46318;52.716;6.444;2024-03-06T14:09:50;10.30;86.70
60473;DHT22;46318;52.716;6.444;2024-03-06T14:12:16;10.30;87.50
60473;DHT22;46318;52.716;6.444;2024-03-06T14:14:43;10.30;87.10
60473;DHT22;46318;52.716;6.444;2024-03-06T14:17:11;10.30;86.40
60473;DHT22;46318;52.716;6.444;2024-03-06T14:19:38;10.30;87.20
60473;DHT22;46318;52.716;6.444;2024-03-06T14:22:06;10.30;86.40
60473;DHT22;46318;52.716;6.444;2024-03-06T14:24:35;10.30;87.10
60473;DHT22;46318;52.716;6.444;2024-03-06T14:27:04;10.40;87.50
60473;DHT22;46318;52.716;6.444;2024-03-06T14:29:31;10.40;87.30
60473;DHT22;46318;52.716;6.444;2024-03-06T14:31:57;10.40;86.60
60473;DHT22;46318;52.716;6.444;2024-03-06T14:34:22;10.40;87.20
60473;DHT22;46318;52.716;6.444;2024-03-06T14:36:53;10.40;86.50
60473;DHT22;46318;52.716;6.444;2024-03-06T14:39:19;10.40;86.80
60473;DHT22;46318;52.716;6.444;2024-03-06T14:41:48;10.50;87.00
60473;DHT22;46318;52.716;6.444;2024-03-06T14:44:19;10.50;86.30
60473;DHT22;46318;52.716;6.444;2024-03-06T14:46:46;10.50;87.00
60473;DHT22;46318;52.716;6.444;2024-03-06T14:49:12;10.50;86.60
60473;DHT22;46318;52.716;6.444;2024-03-06T14:51:39;10.50;86.20
60473;DHT22;46318;52.716;6.444;2024-03-06T14:54:05;10.40;85.90
60473;DHT22;46318;52.716;6.444;2024-03-06T14:56:34;10.50;87.00
60473;DHT22;46318;52.716;6.444;2024-03-06T14:59:00;10.40;87.10
60473;DHT22;46318;52.716;6.444;2024-03-06T15:01:25;10.40;86.20
60473;DHT22;46318;52.716;6.444;2024-03-06T15:03:53;10.40;86.00
60473;DHT22;46318;52.716;6.444;2024-03-06T15:06:20;10.40;86.80
60473;DHT22;46318;52.716;6.444;2024-03-06T15:08:46;10.40;86.90
60473;DHT22;46318;52.716;6.444;2024-03-06T15:11:12;10.40;86.90
60473;DHT22;46318;52.716;6.444;2024-03-06T15:13:37;10.40;87.00
60473;DHT22;46318;52.716;6.444;2024-03-06T15:16:04;10.30;86.10
60473;DHT22;46318;52.716;6.444;2024-03-06T15:18:30;10.30;86.70
60473;DHT22;46318;52.716;6.444;2024-03-06T15:20:56;10.30;86.60
60473;DHT22;46318;52.716;6.444;2024-03-06T15:23:22;10.30;86.50
60473;DHT22;46318;52.716;6.444;2024-03-06T15:25:47;10.30;87.10
60473;DHT22;46318;52.716;6.444;2024-03-06T15:28:13;10.30;87.20
60473;DHT22;46318;52.716;6.444;2024-03-06T15:30:39;10.30;86.50
60473;DHT22;46318;52.716;6.444;2024-03-06T15:33:05;10.30;86.80
60473;DHT22;46318;52.716;6.444;2024-03-06T15:35:32;10.30;87.10
60473;DHT22;46318;52.716;6.444;2024-03-06T15:37:58;10.20;86.70
60473;DHT22;46318;52.716;6.444;2024-03-06T15:40:24;10.20;86.40
60473;DHT22;46318;52.716;6.444;2024-03-06T15:42:51;10.10;86.00
60473;DHT22;46318;52.716;6.444;2024-03-06T15:45:17;10.10;87.20
60473;DHT22;46318;52.716;6.444;2024-03-06T15:47:43;10.10;87.30
60473;DHT22;46318;52.716;6.444;2024-03-06T15:50:11;10.10;86.70
60473;DHT22;46318;52.716;6.444;2024-03-06T15:52:42;10.00;86.60
60473;DHT22;46318;52.716;6.444;2024-03-06T15:55:08;10.00;86.50
60473;DHT22;46318;52.716;6.444;2024-03-06T15:57:37;10.00;86.70
60473;DHT22;46318;52.716;6.444;2024-03-06T16:00:06;10.00;87.30